ěÝzenÝ letovÚho provozu ╚eskÚ republiky
Letiste: LKMT Aktualizace: 24.09.2020 18:30:25  UTC
 METAR LKMT 24.09. 18:30 ...
METAR LKMT 241830Z 24005KT CAVOK 17/14 Q1009 NOSIG RMK REG QNH 1003=
 TAF LKMT 24.09. 17:00 ...
TAF LKMT 241700Z 2418/2600 18006KT 9999 SCT040      BECMG 2507/2509 20012G24KT 9000 -RA BKN030      TEMPO 2510/2600 5000 RA BR BKN020      PROB30 TEMPO 2515/2520 TSRA SCT025CB      BECMG 2521/2523 35008KT=